Terminal Aerodrome Forecast
Issued by NWS

Home | Current Version | Previous Version | Text Only | Print | Product List | Glossary On
Versions: 1 2 3 4 5 6 7 8 9 10 11 12 13 14 15 16 17 18 19 20
000
FTUS43 KMQT 211100
TAFSAW
TAF
KSAW 211128Z 2112/2212 01014G22KT 6SM -DZ BR OVC005
     FM211500 01014G22KT P6SM OVC010
     FM212100 01014G22KT P6SM SCT020 BKN035
     FM220000 35005KT P6SM SKC
      AMD LTD TO CLD VIS AND WIND 2202/2210=

USA.gov is the U.S. government's official web portal to all federal, state and local government web resources and services.